Continental, OH (45837)

6:14 AM EDT on July 25, 2014 (GMT -0400)
Dan Halter farm (KOHOAKWO6) Elev 702 ft | 41.11 °N, 84.40 °W | Change Station

Current weather conditions updated 9 minutes ago

Clear
Clear
52.4 °F
Feels Like 52.4 °F
N
0.0
Wind Variable Wind from SE
Gusts 0.0 mph

Today is forecast to be nearly the same temperature as yesterday. A few showers developing late tonight.

Today
High -- | Low -- °F
--% Chance of Precip.
Yesterday
High -- | Low -- °F
Precip. -- in
6:26 AM 9:00 PM
Waning Crescent, 2% visible
Pressure 30.10 in
Visibility 5.0 miles
Clouds Clear
Dew Point 52 °F
Humidity 98%
Rainfall 0.00 in
Snow Depth Not available.
UV 0 out of 12
Pollen 6.30 out of 12
Air Quality Not available.
Flu Activity Not available.
METAR KDFI 250953Z AUTO 00000KT 5SM BR CLR 11/09 A3011 RMK AO2 SLP193 T01060094

More Conditions Fewer Conditions

Pressure 30.10 in
Visibility 5.0 miles
Clouds Clear
Dew Point 52 °F
Humidity 98%
Rainfall 0.00 in
Snow Depth Not available.
UV 0 out of 12
Pollen 6.30 out of 12
Air Quality Not available.
Flu Activity Not available.
METAR KDFI 250953Z AUTO 00000KT 5SM BR CLR 11/09 A3011 RMK AO2 SLP193 T01060094

More Conditions Fewer Conditions

10-Day Weather Forecast

Almanac

Astronomy

Jul. 25, 2014 Rise Set
Actual Time 6:26 AM EDT 9:00 PM EDT
Civil Twilight 5:54 AM EDT 9:32 PM EDT
Nautical Twilight 5:14 AM EDT 10:11 PM EDT
Astronomical Twilight 4:30 AM EDT 10:55 PM EDT
Moon 5:25 AM EDT 7:56 PM EDT
Length of Visible Light 15h 37m
Length of Day
14h 34m
Tomorrow will be 1m 51s shorter.
Waning Crescent, 2% of the Moon is Illuminated
Today
Waning Crescent
Jul 26
New
Aug 3
First Quarter
Aug 10
Full
Aug 17
Last Quarter

Today's Extremes

State Highs State Lows

Community

WunderPhotos

Upload Photos

1,737,277 photos uploaded!

Nearby

Snow Depth

Station Depth Elevation
No new snow has been reported.

Earthquake Activity

City Distance Mag. Time & Date
No recent earthquake activity has been reported nearby.
Minimum magnitude displayed is 2.5.

Coastal Water Temperatures

Place Temperature
No Stations Reporting

Nearby Weather Stations

Station Location Temp. Windchill Dew Point Humidity Wind Precip. Elev Updated Type
Dan Halter farm, Oakwood, OH 52.4 °F - 52 °F 98% SE  at  0.0 mph 0.00 in / hr 702 ft 6:05 AM EDT Normal
3 miles WNW of Melrose, Paulding County, OH 51.7 °F - 50 °F 92% SE  at  0.0 mph 0.00 in / hr 722 ft 6:07 AM EDT Normal
Delphos, OH 53.2 °F - 49 °F 85% SE  at  0.0 mph - / hr 781 ft 6:04 AM EDT Normal
N1ICS - Ridge Township, OH, Van Wert, OH 50.0 °F - 49 °F 96% WSW  at  0.0 mph 0.00 in / hr 784 ft 6:10 AM EDT Normal
Acme Weatherstation, Elida, OH 49.8 °F 50 °F 49 °F 97% West  at  0.0 mph - / hr 801 ft 6:11 AM EDT Normal
KOHNAPOL2, Napoleon, OH 48.5 °F 48 °F 48 °F 97% NE  at  0.0 mph 0.00 in / hr 680 ft 6:14 AM EDT Rapid Fire
Near Allentown, Elida, OH 50.1 °F - 48 °F 94% ENE  at  0.0 mph 0.00 in / hr 814 ft 6:14 AM EDT Rapid Fire

Show More Stations Show Fewer Stations